Barhom II — 5IM534 — position and weather

sailwx.info

Track history (hours):
 
Tides and Currents Weather Stations Pressure Air Temp Water Temp Dewpoint Dewpoint Depression Visibility Wind Speed Wind Dir Waves Ship Positions

Barhom II

Last reported at 2016-May-01 01:21 UTC. Time now 2016-May-02 23:13 UTC.
Position N 32°22' E 015°13'.

Length 83 m.

Type: Cargo ship. MMSI: 677043400.

Date/timePositionNaut miles runAvg speedWind from/ knotsBaromVisibWave heightAir tempDewpointWater temp
2016-May-01 01:21N 32°22' E 015°13'0 0.0
2016-May-01 00:33N 32°22' E 015°13'0 0.0
2016-Apr-30 23:33N 32°22' E 015°13'0 0.0
2016-Apr-30 22:33N 32°22' E 015°13'0 0.0
2016-Apr-30 19:33N 32°22' E 015°13'0 0.0
2016-Apr-30 18:06N 32°22' E 015°13'0 0.0
2016-Apr-30 17:33N 32°22' E 015°13'0 0.0
2016-Apr-30 16:33N 32°22' E 015°13'0 0.0
2016-Apr-30 15:33N 32°22' E 015°13'0 0.0
2016-Apr-30 14:09N 32°22' E 015°13'0 0.0
2016-Apr-30 13:09N 32°22' E 015°13'17010.2
2016-Apr-29 20:33N 34°45' E 013°23'1110.6
2016-Apr-29 19:33N 34°54' E 013°17'5510.3
2016-Apr-29 14:14N 35°40' E 012°40'810.0
2016-Apr-29 13:29N 35°47' E 012°35'423 9.9
2016-Apr-27 18:32N 37°21' E 004°01'1110.9
2016-Apr-27 17:31N 37°21' E 003°47'1110.8
2016-Apr-27 16:32N 37°21' E 003°34'1110.8
2016-Apr-27 15:33N 37°22' E 003°21'1110.9
2016-Apr-27 14:33N 37°22' E 003°07'1110.9
2016-Apr-27 13:31N 37°22' E 002°53'1111.6
2016-Apr-27 12:33N 37°22' E 002°39'2611.4
2016-Apr-27 10:18N 37°22' E 002°06'911.4
2016-Apr-27 09:33N 37°23' E 001°56'1211.0
2016-Apr-27 08:29N 37°23' E 001°41'1010.4
2016-Apr-27 07:33N 37°24' E 001°29'2210.1
2016-Apr-27 05:22N 37°24' E 001°01'910.6
2016-Apr-27 04:33N 37°25' E 000°50'1110.7
2016-Apr-27 03:34N 37°25' E 000°37'2411.2
2016-Apr-27 01:25N 37°26' E 000°07'1111.4
2016-Apr-27 00:25N 37°26' W 000°08'1010.7
2016-Apr-26 23:29N 37°27' W 000°20'1010.8
2016-Apr-26 22:33N 37°28' W 000°33'1110.9
2016-Apr-26 21:33N 37°29' W 000°47'  
2016-Apr-23 17:14N 37°31' W 001°01'710.5
2016-Apr-23 16:33N 37°30' W 000°52'1110.4
2016-Apr-23 15:32N 37°33' W 000°39'10 9.9
2016-Apr-23 14:33N 37°39' W 000°30'1010.1
2016-Apr-23 13:33N 37°48' W 000°24'1010.2
2016-Apr-23 12:33N 37°55' W 000°14'1010.3
2016-Apr-23 11:33N 38°01' W 000°03'1010.5
2016-Apr-23 10:33N 38°07' E 000°07'12010.9
2016-Apr-22 23:33N 39°55' E 001°14'10 9.8
2016-Apr-22 22:33N 40°04' E 001°18'1211.8
2016-Apr-22 21:33N 40°15' E 001°24'1211.8
2016-Apr-22 20:33N 40°26' E 001°29'1211.8
2016-Apr-22 19:33N 40°36' E 001°37'1111.4
2016-Apr-22 18:33N 40°47' E 001°43'8 7.9
2016-Apr-22 17:33N 40°45' E 001°54'1111.2
2016-Apr-22 16:33N 40°39' E 002°06'1110.9
2016-Apr-22 15:33N 40°32' E 002°17'1111.0
2016-Apr-22 14:33N 40°25' E 002°28'1110.7
2016-Apr-22 13:33N 40°20' E 002°40'1010.4
2016-Apr-22 12:33N 40°15' E 002°52'1010.4
2016-Apr-22 11:33N 40°10' E 003°04'2210.8
2016-Apr-22 09:28N 39°59' E 003°30'2310.3
2016-Apr-22 07:10N 39°47' E 003°56'  
Track history (hours):
 
Tides and Currents Weather Stations Pressure Air Temp Water Temp Dewpoint Dewpoint Depression Visibility Wind Speed Wind Dir Waves Ship Positions

Barhom II

Last reported at 2016-May-01 01:21 UTC. Time now 2016-May-02 23:13 UTC.
Position N 32°22' E 015°13'.

Length 83 m.

Type: Cargo ship. MMSI: 677043400.

Date/timePositionNaut miles runAvg speedWind from/ knotsBaromVisibWave heightAir tempDewpointWater temp
2016-May-01 01:21N 32°22' E 015°13'0 0.0
2016-May-01 00:33N 32°22' E 015°13'0 0.0
2016-Apr-30 23:33N 32°22' E 015°13'0 0.0
2016-Apr-30 22:33N 32°22' E 015°13'0 0.0
2016-Apr-30 19:33N 32°22' E 015°13'0 0.0
2016-Apr-30 18:06N 32°22' E 015°13'0 0.0
2016-Apr-30 17:33N 32°22' E 015°13'0 0.0
2016-Apr-30 16:33N 32°22' E 015°13'0 0.0
2016-Apr-30 15:33N 32°22' E 015°13'0 0.0
2016-Apr-30 14:09N 32°22' E 015°13'0 0.0
2016-Apr-30 13:09N 32°22' E 015°13'17010.2
2016-Apr-29 20:33N 34°45' E 013°23'1110.6
2016-Apr-29 19:33N 34°54' E 013°17'5510.3
2016-Apr-29 14:14N 35°40' E 012°40'810.0
2016-Apr-29 13:29N 35°47' E 012°35'423 9.9
2016-Apr-27 18:32N 37°21' E 004°01'1110.9
2016-Apr-27 17:31N 37°21' E 003°47'1110.8
2016-Apr-27 16:32N 37°21' E 003°34'1110.8
2016-Apr-27 15:33N 37°22' E 003°21'1110.9
2016-Apr-27 14:33N 37°22' E 003°07'1110.9
2016-Apr-27 13:31N 37°22' E 002°53'1111.6
2016-Apr-27 12:33N 37°22' E 002°39'2611.4
2016-Apr-27 10:18N 37°22' E 002°06'911.4
2016-Apr-27 09:33N 37°23' E 001°56'1211.0
2016-Apr-27 08:29N 37°23' E 001°41'1010.4
2016-Apr-27 07:33N 37°24' E 001°29'2210.1
2016-Apr-27 05:22N 37°24' E 001°01'910.6
2016-Apr-27 04:33N 37°25' E 000°50'1110.7
2016-Apr-27 03:34N 37°25' E 000°37'2411.2
2016-Apr-27 01:25N 37°26' E 000°07'1111.4
2016-Apr-27 00:25N 37°26' W 000°08'1010.7
2016-Apr-26 23:29N 37°27' W 000°20'1010.8
2016-Apr-26 22:33N 37°28' W 000°33'1110.9
2016-Apr-26 21:33N 37°29' W 000°47'  
2016-Apr-23 17:14N 37°31' W 001°01'710.5
2016-Apr-23 16:33N 37°30' W 000°52'1110.4
2016-Apr-23 15:32N 37°33' W 000°39'10 9.9
2016-Apr-23 14:33N 37°39' W 000°30'1010.1
2016-Apr-23 13:33N 37°48' W 000°24'1010.2
2016-Apr-23 12:33N 37°55' W 000°14'1010.3
2016-Apr-23 11:33N 38°01' W 000°03'1010.5
2016-Apr-23 10:33N 38°07' E 000°07'12010.9
2016-Apr-22 23:33N 39°55' E 001°14'10 9.8
2016-Apr-22 22:33N 40°04' E 001°18'1211.8
2016-Apr-22 21:33N 40°15' E 001°24'1211.8
2016-Apr-22 20:33N 40°26' E 001°29'1211.8
2016-Apr-22 19:33N 40°36' E 001°37'1111.4
2016-Apr-22 18:33N 40°47' E 001°43'8 7.9
2016-Apr-22 17:33N 40°45' E 001°54'1111.2
2016-Apr-22 16:33N 40°39' E 002°06'1110.9
2016-Apr-22 15:33N 40°32' E 002°17'1111.0
2016-Apr-22 14:33N 40°25' E 002°28'1110.7
2016-Apr-22 13:33N 40°20' E 002°40'1010.4
2016-Apr-22 12:33N 40°15' E 002°52'1010.4
2016-Apr-22 11:33N 40°10' E 003°04'2210.8
2016-Apr-22 09:28N 39°59' E 003°30'2310.3
2016-Apr-22 07:10N 39°47' E 003°56'  

Dump ship's entire track history